sensor_id;sensor_type;location;lat;lon;timestamp;temperature;humidity
4376;DHT22;2202;50.866;12.750;2023-11-21T00:01:59;7.60;96.70
4376;DHT22;2202;50.866;12.750;2023-11-21T00:04:26;7.60;97.10
4376;DHT22;2202;50.866;12.750;2023-11-21T00:06:54;7.60;96.90
4376;DHT22;2202;50.866;12.750;2023-11-21T00:09:21;7.40;97.30
4376;DHT22;2202;50.866;12.750;2023-11-21T00:11:48;7.30;97.70
4376;DHT22;2202;50.866;12.750;2023-11-21T00:14:15;7.30;98.00
4376;DHT22;2202;50.866;12.750;2023-11-21T00:16:43;7.30;98.00
4376;DHT22;2202;50.866;12.750;2023-11-21T00:19:10;7.30;98.00
4376;DHT22;2202;50.866;12.750;2023-11-21T00:21:37;7.30;98.10
4376;DHT22;2202;50.866;12.750;2023-11-21T00:24:04;7.30;98.00
4376;DHT22;2202;50.866;12.750;2023-11-21T00:26:31;7.30;98.10
4376;DHT22;2202;50.866;12.750;2023-11-21T00:29:02;7.30;98.30
4376;DHT22;2202;50.866;12.750;2023-11-21T00:31:29;7.30;98.30
4376;DHT22;2202;50.866;12.750;2023-11-21T00:33:57;7.30;98.20
4376;DHT22;2202;50.866;12.750;2023-11-21T00:36:24;7.20;98.30
4376;DHT22;2202;50.866;12.750;2023-11-21T00:38:51;7.20;98.20
4376;DHT22;2202;50.866;12.750;2023-11-21T00:41:18;7.30;98.30
4376;DHT22;2202;50.866;12.750;2023-11-21T00:43:45;7.30;98.20
4376;DHT22;2202;50.866;12.750;2023-11-21T00:46:11;7.30;98.00
4376;DHT22;2202;50.866;12.750;2023-11-21T00:48:39;7.30;97.80
4376;DHT22;2202;50.866;12.750;2023-11-21T00:51:07;7.30;97.60
4376;DHT22;2202;50.866;12.750;2023-11-21T00:53:34;7.30;97.60
4376;DHT22;2202;50.866;12.750;2023-11-21T00:56:01;7.30;97.50
4376;DHT22;2202;50.866;12.750;2023-11-21T00:58:28;7.30;97.40
4376;DHT22;2202;50.866;12.750;2023-11-21T01:00:55;7.20;97.50
4376;DHT22;2202;50.866;12.750;2023-11-21T01:03:23;7.20;97.60
4376;DHT22;2202;50.866;12.750;2023-11-21T01:05:50;7.10;97.60
4376;DHT22;2202;50.866;12.750;2023-11-21T01:08:18;7.20;97.60
4376;DHT22;2202;50.866;12.750;2023-11-21T01:10:45;7.10;97.70
4376;DHT22;2202;50.866;12.750;2023-11-21T01:13:14;7.10;97.70
4376;DHT22;2202;50.866;12.750;2023-11-21T01:15:42;7.10;97.50
4376;DHT22;2202;50.866;12.750;2023-11-21T01:18:09;7.20;97.50
4376;DHT22;2202;50.866;12.750;2023-11-21T01:20:35;7.10;97.30
4376;DHT22;2202;50.866;12.750;2023-11-21T01:23:02;7.10;97.60
4376;DHT22;2202;50.866;12.750;2023-11-21T01:25:31;7.10;97.40
4376;DHT22;2202;50.866;12.750;2023-11-21T01:27:58;7.20;97.30
4376;DHT22;2202;50.866;12.750;2023-11-21T01:30:25;7.20;97.00
4376;DHT22;2202;50.866;12.750;2023-11-21T01:32:52;7.20;96.90
4376;DHT22;2202;50.866;12.750;2023-11-21T01:35:18;7.00;96.80
4376;DHT22;2202;50.866;12.750;2023-11-21T01:37:45;6.90;97.10
4376;DHT22;2202;50.866;12.750;2023-11-21T01:40:13;7.00;97.10
4376;DHT22;2202;50.866;12.750;2023-11-21T01:42:42;6.80;97.10
4376;DHT22;2202;50.866;12.750;2023-11-21T01:45:10;6.70;97.20
4376;DHT22;2202;50.866;12.750;2023-11-21T01:47:38;6.70;97.50
4376;DHT22;2202;50.866;12.750;2023-11-21T01:50:08;6.70;97.20
4376;DHT22;2202;50.866;12.750;2023-11-21T01:52:38;6.40;97.60
4376;DHT22;2202;50.866;12.750;2023-11-21T01:55:07;6.40;98.20
4376;DHT22;2202;50.866;12.750;2023-11-21T01:57:35;6.50;98.10
4376;DHT22;2202;50.866;12.750;2023-11-21T02:00:06;6.60;98.00
4376;DHT22;2202;50.866;12.750;2023-11-21T02:02:42;6.70;97.80
4376;DHT22;2202;50.866;12.750;2023-11-21T02:05:09;6.70;97.80
4376;DHT22;2202;50.866;12.750;2023-11-21T02:07:38;6.70;97.90
4376;DHT22;2202;50.866;12.750;2023-11-21T02:10:06;6.80;97.80
4376;DHT22;2202;50.866;12.750;2023-11-21T02:12:33;6.80;97.80
4376;DHT22;2202;50.866;12.750;2023-11-21T02:15:00;6.80;97.80
4376;DHT22;2202;50.866;12.750;2023-11-21T02:17:30;6.80;98.00
4376;DHT22;2202;50.866;12.750;2023-11-21T02:19:58;6.70;97.90
4376;DHT22;2202;50.866;12.750;2023-11-21T02:22:26;6.70;98.10
4376;DHT22;2202;50.866;12.750;2023-11-21T02:24:56;6.80;98.00
4376;DHT22;2202;50.866;12.750;2023-11-21T02:27:24;6.90;97.80
4376;DHT22;2202;50.866;12.750;2023-11-21T02:29:52;6.90;97.60
4376;DHT22;2202;50.866;12.750;2023-11-21T02:32:19;6.90;97.60
4376;DHT22;2202;50.866;12.750;2023-11-21T02:34:48;6.90;97.70
4376;DHT22;2202;50.866;12.750;2023-11-21T02:37:15;6.90;97.60
4376;DHT22;2202;50.866;12.750;2023-11-21T02:39:42;6.90;97.60
4376;DHT22;2202;50.866;12.750;2023-11-21T02:42:10;6.90;97.90
4376;DHT22;2202;50.866;12.750;2023-11-21T02:44:37;6.80;98.00
4376;DHT22;2202;50.866;12.750;2023-11-21T02:47:04;6.80;98.20
4376;DHT22;2202;50.866;12.750;2023-11-21T02:49:31;6.80;98.20
4376;DHT22;2202;50.866;12.750;2023-11-21T02:52:00;6.80;98.10
4376;DHT22;2202;50.866;12.750;2023-11-21T02:54:27;6.80;98.20
4376;DHT22;2202;50.866;12.750;2023-11-21T02:56:54;6.70;98.20
4376;DHT22;2202;50.866;12.750;2023-11-21T02:59:22;6.70;98.20
4376;DHT22;2202;50.866;12.750;2023-11-21T03:01:49;6.70;98.40
4376;DHT22;2202;50.866;12.750;2023-11-21T03:04:16;6.80;98.20
4376;DHT22;2202;50.866;12.750;2023-11-21T03:06:43;6.80;98.10
4376;DHT22;2202;50.866;12.750;2023-11-21T03:09:11;6.80;98.10
4376;DHT22;2202;50.866;12.750;2023-11-21T03:11:38;6.80;97.80
4376;DHT22;2202;50.866;12.750;2023-11-21T03:14:05;6.70;97.80
4376;DHT22;2202;50.866;12.750;2023-11-21T03:16:33;6.70;98.10
4376;DHT22;2202;50.866;12.750;2023-11-21T03:19:00;6.70;97.90
4376;DHT22;2202;50.866;12.750;2023-11-21T03:21:27;6.80;98.10
4376;DHT22;2202;50.866;12.750;2023-11-21T03:23:54;6.80;97.70
4376;DHT22;2202;50.866;12.750;2023-11-21T03:26:21;6.80;97.90
4376;DHT22;2202;50.866;12.750;2023-11-21T03:28:48;6.80;97.80
4376;DHT22;2202;50.866;12.750;2023-11-21T03:31:15;6.70;97.70
4376;DHT22;2202;50.866;12.750;2023-11-21T03:33:45;6.80;98.00
4376;DHT22;2202;50.866;12.750;2023-11-21T03:36:13;6.80;97.90
4376;DHT22;2202;50.866;12.750;2023-11-21T03:38:41;6.80;97.80
4376;DHT22;2202;50.866;12.750;2023-11-21T03:41:08;6.80;97.90
4376;DHT22;2202;50.866;12.750;2023-11-21T03:43:36;6.70;97.80
4376;DHT22;2202;50.866;12.750;2023-11-21T03:46:03;6.80;97.90
4376;DHT22;2202;50.866;12.750;2023-11-21T03:48:30;6.80;97.80
4376;DHT22;2202;50.866;12.750;2023-11-21T03:50:59;6.70;98.00
4376;DHT22;2202;50.866;12.750;2023-11-21T03:53:26;6.70;98.00
4376;DHT22;2202;50.866;12.750;2023-11-21T03:55:53;6.70;97.90
4376;DHT22;2202;50.866;12.750;2023-11-21T03:58:20;6.80;98.00
4376;DHT22;2202;50.866;12.750;2023-11-21T04:00:47;6.80;97.80
4376;DHT22;2202;50.866;12.750;2023-11-21T04:03:14;6.80;97.80
4376;DHT22;2202;50.866;12.750;2023-11-21T04:05:41;6.70;97.50
4376;DHT22;2202;50.866;12.750;2023-11-21T04:08:10;6.70;97.90
4376;DHT22;2202;50.866;12.750;2023-11-21T04:10:36;6.80;97.70
4376;DHT22;2202;50.866;12.750;2023-11-21T04:13:05;6.70;97.50
4376;DHT22;2202;50.866;12.750;2023-11-21T04:15:32;6.70;97.70
4376;DHT22;2202;50.866;12.750;2023-11-21T04:17:59;6.60;97.80
4376;DHT22;2202;50.866;12.750;2023-11-21T04:20:26;6.50;98.10
4376;DHT22;2202;50.866;12.750;2023-11-21T04:22:52;6.40;98.40
4376;DHT22;2202;50.866;12.750;2023-11-21T04:25:21;6.40;98.70
4376;DHT22;2202;50.866;12.750;2023-11-21T04:27:49;6.40;98.70
4376;DHT22;2202;50.866;12.750;2023-11-21T04:30:16;6.40;98.80
4376;DHT22;2202;50.866;12.750;2023-11-21T04:32:43;6.50;98.70
4376;DHT22;2202;50.866;12.750;2023-11-21T04:35:10;6.50;98.70
4376;DHT22;2202;50.866;12.750;2023-11-21T04:37:36;6.60;98.30
4376;DHT22;2202;50.866;12.750;2023-11-21T04:40:04;6.50;98.00
4376;DHT22;2202;50.866;12.750;2023-11-21T04:42:35;6.40;98.30
4376;DHT22;2202;50.866;12.750;2023-11-21T04:45:02;6.40;98.00
4376;DHT22;2202;50.866;12.750;2023-11-21T04:47:33;6.30;97.90
4376;DHT22;2202;50.866;12.750;2023-11-21T04:50:00;6.20;98.00
4376;DHT22;2202;50.866;12.750;2023-11-21T04:52:27;6.10;98.00
4376;DHT22;2202;50.866;12.750;2023-11-21T04:54:54;6.10;98.20
4376;DHT22;2202;50.866;12.750;2023-11-21T04:57:23;6.10;98.10
4376;DHT22;2202;50.866;12.750;2023-11-21T04:59:51;6.10;98.00
4376;DHT22;2202;50.866;12.750;2023-11-21T05:02:18;6.20;97.70
4376;DHT22;2202;50.866;12.750;2023-11-21T05:04:46;6.20;97.40
4376;DHT22;2202;50.866;12.750;2023-11-21T05:07:13;6.00;97.10
4376;DHT22;2202;50.866;12.750;2023-11-21T05:09:41;5.70;97.70
4376;DHT22;2202;50.866;12.750;2023-11-21T05:12:09;5.70;98.30
4376;DHT22;2202;50.866;12.750;2023-11-21T05:14:37;5.80;98.10
4376;DHT22;2202;50.866;12.750;2023-11-21T05:17:04;5.80;97.90
4376;DHT22;2202;50.866;12.750;2023-11-21T05:19:31;5.80;97.80
4376;DHT22;2202;50.866;12.750;2023-11-21T05:21:58;5.80;97.60
4376;DHT22;2202;50.866;12.750;2023-11-21T05:24:26;5.80;97.30
4376;DHT22;2202;50.866;12.750;2023-11-21T05:26:54;5.70;97.10
4376;DHT22;2202;50.866;12.750;2023-11-21T05:29:21;5.70;97.00
4376;DHT22;2202;50.866;12.750;2023-11-21T05:31:48;5.70;96.80
4376;DHT22;2202;50.866;12.750;2023-11-21T05:34:16;5.60;96.50
4376;DHT22;2202;50.866;12.750;2023-11-21T05:36:43;5.60;96.20
4376;DHT22;2202;50.866;12.750;2023-11-21T05:39:11;5.50;96.00
4376;DHT22;2202;50.866;12.750;2023-11-21T05:41:38;5.40;96.00
4376;DHT22;2202;50.866;12.750;2023-11-21T05:44:05;5.30;95.80
4376;DHT22;2202;50.866;12.750;2023-11-21T05:46:32;5.30;95.60
4376;DHT22;2202;50.866;12.750;2023-11-21T05:48:58;5.20;95.50
4376;DHT22;2202;50.866;12.750;2023-11-21T05:51:27;5.10;95.50
4376;DHT22;2202;50.866;12.750;2023-11-21T05:53:54;5.10;95.60
4376;DHT22;2202;50.866;12.750;2023-11-21T05:56:20;5.00;95.70
4376;DHT22;2202;50.866;12.750;2023-11-21T05:58:47;5.00;95.70
4376;DHT22;2202;50.866;12.750;2023-11-21T06:01:14;4.90;95.70
4376;DHT22;2202;50.866;12.750;2023-11-21T06:03:41;4.90;95.80
4376;DHT22;2202;50.866;12.750;2023-11-21T06:06:08;4.80;95.90
4376;DHT22;2202;50.866;12.750;2023-11-21T06:08:37;4.80;96.20
4376;DHT22;2202;50.866;12.750;2023-11-21T06:11:03;4.70;96.90
4376;DHT22;2202;50.866;12.750;2023-11-21T06:13:30;4.60;97.70
4376;DHT22;2202;50.866;12.750;2023-11-21T06:15:57;4.60;97.90
4376;DHT22;2202;50.866;12.750;2023-11-21T06:18:24;4.70;97.80
4376;DHT22;2202;50.866;12.750;2023-11-21T06:20:51;4.60;97.90
4376;DHT22;2202;50.866;12.750;2023-11-21T06:23:18;4.60;98.00
4376;DHT22;2202;50.866;12.750;2023-11-21T06:25:47;4.70;98.00
4376;DHT22;2202;50.866;12.750;2023-11-21T06:28:14;4.70;98.10
4376;DHT22;2202;50.866;12.750;2023-11-21T06:30:43;4.80;98.10
4376;DHT22;2202;50.866;12.750;2023-11-21T06:33:10;4.80;98.20
4376;DHT22;2202;50.866;12.750;2023-11-21T06:35:37;4.90;98.20
4376;DHT22;2202;50.866;12.750;2023-11-21T06:38:05;4.90;98.40
4376;DHT22;2202;50.866;12.750;2023-11-21T06:40:32;5.00;98.50
4376;DHT22;2202;50.866;12.750;2023-11-21T06:43:01;5.10;99.30
4376;DHT22;2202;50.866;12.750;2023-11-21T06:45:28;5.20;99.80
4376;DHT22;2202;50.866;12.750;2023-11-21T06:47:54;5.30;99.90
4376;DHT22;2202;50.866;12.750;2023-11-21T06:50:21;5.30;99.90
4376;DHT22;2202;50.866;12.750;2023-11-21T06:52:48;5.40;99.90
4376;DHT22;2202;50.866;12.750;2023-11-21T06:55:15;5.50;99.90
4376;DHT22;2202;50.866;12.750;2023-11-21T06:57:42;5.50;99.90
4376;DHT22;2202;50.866;12.750;2023-11-21T07:00:12;5.60;99.90
4376;DHT22;2202;50.866;12.750;2023-11-21T07:02:40;5.70;99.90
4376;DHT22;2202;50.866;12.750;2023-11-21T07:05:07;5.70;99.90
4376;DHT22;2202;50.866;12.750;2023-11-21T07:07:34;5.70;99.90
4376;DHT22;2202;50.866;12.750;2023-11-21T07:10:03;5.70;99.90
4376;DHT22;2202;50.866;12.750;2023-11-21T07:12:31;5.70;99.90
4376;DHT22;2202;50.866;12.750;2023-11-21T07:14:58;5.80;99.90
4376;DHT22;2202;50.866;12.750;2023-11-21T07:17:26;5.80;99.90
4376;DHT22;2202;50.866;12.750;2023-11-21T07:19:53;5.80;99.90
4376;DHT22;2202;50.866;12.750;2023-11-21T07:22:20;5.90;99.90
4376;DHT22;2202;50.866;12.750;2023-11-21T07:24:48;5.90;99.90
4376;DHT22;2202;50.866;12.750;2023-11-21T07:27:16;5.90;99.90
4376;DHT22;2202;50.866;12.750;2023-11-21T07:29:43;5.90;99.90
4376;DHT22;2202;50.866;12.750;2023-11-21T07:32:10;6.00;99.90
4376;DHT22;2202;50.866;12.750;2023-11-21T07:34:39;5.90;99.90
4376;DHT22;2202;50.866;12.750;2023-11-21T07:37:06;6.00;99.90
4376;DHT22;2202;50.866;12.750;2023-11-21T07:39:34;6.00;99.90
4376;DHT22;2202;50.866;12.750;2023-11-21T07:42:01;6.00;99.90
4376;DHT22;2202;50.866;12.750;2023-11-21T07:44:28;6.10;99.90
4376;DHT22;2202;50.866;12.750;2023-11-21T07:46:55;6.10;99.90
4376;DHT22;2202;50.866;12.750;2023-11-21T07:49:23;6.10;99.90
4376;DHT22;2202;50.866;12.750;2023-11-21T07:51:51;6.10;99.90
4376;DHT22;2202;50.866;12.750;2023-11-21T07:54:18;6.20;99.90
4376;DHT22;2202;50.866;12.750;2023-11-21T07:56:45;6.20;99.90
4376;DHT22;2202;50.866;12.750;2023-11-21T07:59:11;6.10;99.90
4376;DHT22;2202;50.866;12.750;2023-11-21T08:01:39;6.00;99.90
4376;DHT22;2202;50.866;12.750;2023-11-21T08:04:08;6.00;99.90
4376;DHT22;2202;50.866;12.750;2023-11-21T08:06:35;6.10;99.90
4376;DHT22;2202;50.866;12.750;2023-11-21T08:09:04;6.10;99.90
4376;DHT22;2202;50.866;12.750;2023-11-21T08:11:30;6.10;99.90
4376;DHT22;2202;50.866;12.750;2023-11-21T08:13:58;6.10;99.90
4376;DHT22;2202;50.866;12.750;2023-11-21T08:16:25;6.10;99.90
4376;DHT22;2202;50.866;12.750;2023-11-21T08:18:52;6.10;99.90
4376;DHT22;2202;50.866;12.750;2023-11-21T08:21:20;6.10;99.90
4376;DHT22;2202;50.866;12.750;2023-11-21T08:23:49;6.00;99.90
4376;DHT22;2202;50.866;12.750;2023-11-21T08:26:21;6.00;99.90
4376;DHT22;2202;50.866;12.750;2023-11-21T08:28:48;6.10;99.90
4376;DHT22;2202;50.866;12.750;2023-11-21T08:31:15;6.10;99.90
4376;DHT22;2202;50.866;12.750;2023-11-21T08:37:14;6.10;99.90
4376;DHT22;2202;50.866;12.750;2023-11-21T08:39:41;6.00;99.90
4376;DHT22;2202;50.866;12.750;2023-11-21T08:42:08;6.00;99.90
4376;DHT22;2202;50.866;12.750;2023-11-21T08:44:35;6.00;99.90
4376;DHT22;2202;50.866;12.750;2023-11-21T08:47:02;6.00;99.90
4376;DHT22;2202;50.866;12.750;2023-11-21T08:49:30;6.10;99.90
4376;DHT22;2202;50.866;12.750;2023-11-21T08:51:58;6.10;99.90
4376;DHT22;2202;50.866;12.750;2023-11-21T08:54:26;6.00;99.90
4376;DHT22;2202;50.866;12.750;2023-11-21T08:56:53;5.90;99.90
4376;DHT22;2202;50.866;12.750;2023-11-21T08:59:20;5.90;99.90
4376;DHT22;2202;50.866;12.750;2023-11-21T09:01:47;6.00;99.90
4376;DHT22;2202;50.866;12.750;2023-11-21T09:04:14;6.00;99.90
4376;DHT22;2202;50.866;12.750;2023-11-21T09:06:41;6.10;99.90
4376;DHT22;2202;50.866;12.750;2023-11-21T09:09:08;6.00;99.90
4376;DHT22;2202;50.866;12.750;2023-11-21T09:11:37;6.10;99.90
4376;DHT22;2202;50.866;12.750;2023-11-21T09:14:04;6.00;99.90
4376;DHT22;2202;50.866;12.750;2023-11-21T09:16:31;6.00;99.90
4376;DHT22;2202;50.866;12.750;2023-11-21T09:18:58;6.00;99.90
4376;DHT22;2202;50.866;12.750;2023-11-21T09:21:25;6.10;99.90
4376;DHT22;2202;50.866;12.750;2023-11-21T09:23:53;6.10;99.90
4376;DHT22;2202;50.866;12.750;2023-11-21T09:26:20;6.10;99.90
4376;DHT22;2202;50.866;12.750;2023-11-21T09:28:48;6.10;99.90
4376;DHT22;2202;50.866;12.750;2023-11-21T09:31:15;6.20;99.90
4376;DHT22;2202;50.866;12.750;2023-11-21T09:33:42;6.20;99.90
4376;DHT22;2202;50.866;12.750;2023-11-21T09:36:11;6.20;99.90
4376;DHT22;2202;50.866;12.750;2023-11-21T09:38:40;6.10;99.90
4376;DHT22;2202;50.866;12.750;2023-11-21T09:41:14;6.20;99.90
4376;DHT22;2202;50.866;12.750;2023-11-21T09:43:44;6.10;99.90
4376;DHT22;2202;50.866;12.750;2023-11-21T09:46:14;6.20;99.90
4376;DHT22;2202;50.866;12.750;2023-11-21T09:48:46;6.10;99.90
4376;DHT22;2202;50.866;12.750;2023-11-21T09:51:15;6.10;99.90
4376;DHT22;2202;50.866;12.750;2023-11-21T09:53:44;6.20;99.90
4376;DHT22;2202;50.866;12.750;2023-11-21T09:56:12;6.20;99.90
4376;DHT22;2202;50.866;12.750;2023-11-21T09:58:39;6.20;99.90
4376;DHT22;2202;50.866;12.750;2023-11-21T10:01:06;6.20;99.90
4376;DHT22;2202;50.866;12.750;2023-11-21T10:03:36;6.30;99.90
4376;DHT22;2202;50.866;12.750;2023-11-21T10:06:05;6.20;99.90
4376;DHT22;2202;50.866;12.750;2023-11-21T10:08:33;6.20;99.90
4376;DHT22;2202;50.866;12.750;2023-11-21T10:11:02;6.20;99.90
4376;DHT22;2202;50.866;12.750;2023-11-21T10:13:32;6.30;99.90
4376;DHT22;2202;50.866;12.750;2023-11-21T10:16:00;6.30;99.90
4376;DHT22;2202;50.866;12.750;2023-11-21T10:18:32;6.30;99.90
4376;DHT22;2202;50.866;12.750;2023-11-21T10:21:02;6.40;99.90
4376;DHT22;2202;50.866;12.750;2023-11-21T10:23:29;6.40;99.90
4376;DHT22;2202;50.866;12.750;2023-11-21T10:25:56;6.30;99.90
4376;DHT22;2202;50.866;12.750;2023-11-21T10:28:24;6.30;99.90
4376;DHT22;2202;50.866;12.750;2023-11-21T10:30:51;6.30;99.90
4376;DHT22;2202;50.866;12.750;2023-11-21T10:33:27;6.30;99.90
4376;DHT22;2202;50.866;12.750;2023-11-21T10:35:54;6.30;99.90
4376;DHT22;2202;50.866;12.750;2023-11-21T10:38:22;6.30;99.90
4376;DHT22;2202;50.866;12.750;2023-11-21T10:40:50;6.40;99.90
4376;DHT22;2202;50.866;12.750;2023-11-21T10:43:18;6.40;99.90
4376;DHT22;2202;50.866;12.750;2023-11-21T10:45:45;6.50;99.90
4376;DHT22;2202;50.866;12.750;2023-11-21T10:48:13;6.40;99.90
4376;DHT22;2202;50.866;12.750;2023-11-21T10:50:43;6.40;99.90
4376;DHT22;2202;50.866;12.750;2023-11-21T10:53:10;6.50;99.90
4376;DHT22;2202;50.866;12.750;2023-11-21T10:55:40;6.50;99.90
4376;DHT22;2202;50.866;12.750;2023-11-21T10:58:07;6.40;99.90
4376;DHT22;2202;50.866;12.750;2023-11-21T11:00:37;6.40;99.90
4376;DHT22;2202;50.866;12.750;2023-11-21T11:03:05;6.40;99.90
4376;DHT22;2202;50.866;12.750;2023-11-21T11:05:40;6.40;99.90
4376;DHT22;2202;50.866;12.750;2023-11-21T11:08:08;6.40;99.90
4376;DHT22;2202;50.866;12.750;2023-11-21T11:10:39;6.40;99.90
4376;DHT22;2202;50.866;12.750;2023-11-21T11:13:07;6.30;99.90
4376;DHT22;2202;50.866;12.750;2023-11-21T11:15:35;6.30;99.90
4376;DHT22;2202;50.866;12.750;2023-11-21T11:18:02;6.30;99.90
4376;DHT22;2202;50.866;12.750;2023-11-21T11:20:34;6.30;99.90
4376;DHT22;2202;50.866;12.750;2023-11-21T11:23:17;6.30;99.90
4376;DHT22;2202;50.866;12.750;2023-11-21T11:26:08;6.30;99.90
4376;DHT22;2202;50.866;12.750;2023-11-21T11:28:44;6.10;99.90
4376;DHT22;2202;50.866;12.750;2023-11-21T11:31:24;6.10;99.90
4376;DHT22;2202;50.866;12.750;2023-11-21T11:33:59;6.00;99.90
4376;DHT22;2202;50.866;12.750;2023-11-21T11:36:30;6.10;99.90
4376;DHT22;2202;50.866;12.750;2023-11-21T11:38:58;6.00;99.90
4376;DHT22;2202;50.866;12.750;2023-11-21T11:41:30;6.10;99.90
4376;DHT22;2202;50.866;12.750;2023-11-21T11:44:00;6.10;99.90
4376;DHT22;2202;50.866;12.750;2023-11-21T11:46:41;6.00;99.90
4376;DHT22;2202;50.866;12.750;2023-11-21T11:49:08;5.90;99.90
4376;DHT22;2202;50.866;12.750;2023-11-21T11:51:35;5.90;99.90
4376;DHT22;2202;50.866;12.750;2023-11-21T11:54:02;5.90;99.90
4376;DHT22;2202;50.866;12.750;2023-11-21T11:56:34;5.90;99.90
4376;DHT22;2202;50.866;12.750;2023-11-21T11:59:03;5.90;99.90
4376;DHT22;2202;50.866;12.750;2023-11-21T12:01:33;5.90;99.90
4376;DHT22;2202;50.866;12.750;2023-11-21T12:04:25;5.80;99.90
4376;DHT22;2202;50.866;12.750;2023-11-21T12:07:00;5.80;99.90
4376;DHT22;2202;50.866;12.750;2023-11-21T12:09:29;5.80;99.90
4376;DHT22;2202;50.866;12.750;2023-11-21T12:12:02;5.80;99.90
4376;DHT22;2202;50.866;12.750;2023-11-21T12:14:30;5.70;99.90
4376;DHT22;2202;50.866;12.750;2023-11-21T12:16:57;5.70;99.90
4376;DHT22;2202;50.866;12.750;2023-11-21T12:19:25;5.70;99.90
4376;DHT22;2202;50.866;12.750;2023-11-21T12:21:52;5.60;99.90
4376;DHT22;2202;50.866;12.750;2023-11-21T12:24:21;5.60;99.90
4376;DHT22;2202;50.866;12.750;2023-11-21T12:26:49;5.70;99.90
4376;DHT22;2202;50.866;12.750;2023-11-21T12:29:17;5.70;99.90
4376;DHT22;2202;50.866;12.750;2023-11-21T12:31:44;5.80;99.90
4376;DHT22;2202;50.866;12.750;2023-11-21T12:34:11;5.70;99.90
4376;DHT22;2202;50.866;12.750;2023-11-21T12:36:38;5.70;99.90
4376;DHT22;2202;50.866;12.750;2023-11-21T12:39:05;5.60;99.90
4376;DHT22;2202;50.866;12.750;2023-11-21T12:41:34;5.60;99.90
4376;DHT22;2202;50.866;12.750;2023-11-21T12:44:01;5.60;99.90
4376;DHT22;2202;50.866;12.750;2023-11-21T12:46:30;5.60;99.90
4376;DHT22;2202;50.866;12.750;2023-11-21T12:48:59;5.60;99.90
4376;DHT22;2202;50.866;12.750;2023-11-21T12:51:27;5.60;99.90
4376;DHT22;2202;50.866;12.750;2023-11-21T12:53:55;5.60;99.90
4376;DHT22;2202;50.866;12.750;2023-11-21T12:56:22;5.60;99.90
4376;DHT22;2202;50.866;12.750;2023-11-21T12:58:50;5.50;99.90
4376;DHT22;2202;50.866;12.750;2023-11-21T13:01:17;5.40;99.90
4376;DHT22;2202;50.866;12.750;2023-11-21T13:03:49;5.50;99.90
4376;DHT22;2202;50.866;12.750;2023-11-21T13:06:18;5.50;99.90
4376;DHT22;2202;50.866;12.750;2023-11-21T13:08:45;5.50;99.90
4376;DHT22;2202;50.866;12.750;2023-11-21T13:11:13;5.50;99.90
4376;DHT22;2202;50.866;12.750;2023-11-21T13:13:41;5.50;99.90
4376;DHT22;2202;50.866;12.750;2023-11-21T13:16:08;5.50;99.90
4376;DHT22;2202;50.866;12.750;2023-11-21T13:18:35;5.50;99.90
4376;DHT22;2202;50.866;12.750;2023-11-21T13:21:05;5.50;99.90
4376;DHT22;2202;50.866;12.750;2023-11-21T13:23:37;5.50;99.90
4376;DHT22;2202;50.866;12.750;2023-11-21T13:26:04;5.50;99.90
4376;DHT22;2202;50.866;12.750;2023-11-21T13:28:32;5.40;99.90
4376;DHT22;2202;50.866;12.750;2023-11-21T13:30:59;5.30;99.90
4376;DHT22;2202;50.866;12.750;2023-11-21T13:33:29;5.30;99.90
4376;DHT22;2202;50.866;12.750;2023-11-21T13:35:58;5.40;99.90
4376;DHT22;2202;50.866;12.750;2023-11-21T13:38:28;5.40;99.90
4376;DHT22;2202;50.866;12.750;2023-11-21T13:40:58;5.30;99.60
4376;DHT22;2202;50.866;12.750;2023-11-21T13:43:25;5.20;99.90
4376;DHT22;2202;50.866;12.750;2023-11-21T13:45:54;5.20;99.90
4376;DHT22;2202;50.866;12.750;2023-11-21T13:48:26;5.20;99.90
4376;DHT22;2202;50.866;12.750;2023-11-21T13:51:00;5.20;99.90
4376;DHT22;2202;50.866;12.750;2023-11-21T13:53:43;5.20;99.90
4376;DHT22;2202;50.866;12.750;2023-11-21T13:56:11;5.20;99.90
4376;DHT22;2202;50.866;12.750;2023-11-21T13:58:41;5.10;99.70
4376;DHT22;2202;50.866;12.750;2023-11-21T14:01:13;5.00;99.70
4376;DHT22;2202;50.866;12.750;2023-11-21T14:03:59;5.00;99.60
4376;DHT22;2202;50.866;12.750;2023-11-21T14:06:34;4.90;99.50
4376;DHT22;2202;50.866;12.750;2023-11-21T14:09:12;4.90;99.70
4376;DHT22;2202;50.866;12.750;2023-11-21T14:11:49;4.90;99.70
4376;DHT22;2202;50.866;12.750;2023-11-21T14:14:15;4.80;99.60
4376;DHT22;2202;50.866;12.750;2023-11-21T14:16:43;4.70;99.50
4376;DHT22;2202;50.866;12.750;2023-11-21T14:19:10;4.60;99.60
4376;DHT22;2202;50.866;12.750;2023-11-21T14:21:41;4.60;99.40
4376;DHT22;2202;50.866;12.750;2023-11-21T14:24:09;4.60;99.10
4376;DHT22;2202;50.866;12.750;2023-11-21T14:26:40;4.50;99.10
4376;DHT22;2202;50.866;12.750;2023-11-21T14:29:07;4.20;98.60
4376;DHT22;2202;50.866;12.750;2023-11-21T14:31:36;4.10;98.80
4376;DHT22;2202;50.866;12.750;2023-11-21T14:34:03;4.00;98.90
4376;DHT22;2202;50.866;12.750;2023-11-21T14:36:32;3.90;99.20
4376;DHT22;2202;50.866;12.750;2023-11-21T14:38:58;3.80;99.30
4376;DHT22;2202;50.866;12.750;2023-11-21T14:41:25;3.80;99.10
4376;DHT22;2202;50.866;12.750;2023-11-21T14:43:54;3.70;99.10
4376;DHT22;2202;50.866;12.750;2023-11-21T14:46:23;3.80;99.30
4376;DHT22;2202;50.866;12.750;2023-11-21T14:48:49;3.80;99.30
4376;DHT22;2202;50.866;12.750;2023-11-21T14:51:24;3.80;99.40
4376;DHT22;2202;50.866;12.750;2023-11-21T14:53:56;3.70;99.30
4376;DHT22;2202;50.866;12.750;2023-11-21T14:56:26;3.70;99.50
4376;DHT22;2202;50.866;12.750;2023-11-21T14:58:56;3.70;99.30
4376;DHT22;2202;50.866;12.750;2023-11-21T15:01:24;3.60;99.20
4376;DHT22;2202;50.866;12.750;2023-11-21T15:04:06;3.50;99.20
4376;DHT22;2202;50.866;12.750;2023-11-21T15:06:40;3.40;99.40
4376;DHT22;2202;50.866;12.750;2023-11-21T15:09:08;3.30;99.50
4376;DHT22;2202;50.866;12.750;2023-11-21T15:12:02;3.40;99.60
4376;DHT22;2202;50.866;12.750;2023-11-21T15:14:42;3.40;99.80
4376;DHT22;2202;50.866;12.750;2023-11-21T15:17:08;3.40;99.50
4376;DHT22;2202;50.866;12.750;2023-11-21T15:19:35;3.30;99.50
4376;DHT22;2202;50.866;12.750;2023-11-21T15:22:03;3.30;99.90
4376;DHT22;2202;50.866;12.750;2023-11-21T15:24:32;3.20;99.90
4376;DHT22;2202;50.866;12.750;2023-11-21T15:26:59;3.30;99.90
4376;DHT22;2202;50.866;12.750;2023-11-21T15:29:27;3.30;99.90
4376;DHT22;2202;50.866;12.750;2023-11-21T15:31:54;3.20;99.90
4376;DHT22;2202;50.866;12.750;2023-11-21T15:34:22;3.20;99.90
4376;DHT22;2202;50.866;12.750;2023-11-21T15:36:50;3.20;99.90
4376;DHT22;2202;50.866;12.750;2023-11-21T15:39:19;3.20;99.90
4376;DHT22;2202;50.866;12.750;2023-11-21T15:41:49;3.10;99.90
4376;DHT22;2202;50.866;12.750;2023-11-21T15:44:16;3.10;99.90
4376;DHT22;2202;50.866;12.750;2023-11-21T15:46:44;3.20;99.90
4376;DHT22;2202;50.866;12.750;2023-11-21T15:49:12;3.10;99.90
4376;DHT22;2202;50.866;12.750;2023-11-21T15:51:39;3.10;99.90
4376;DHT22;2202;50.866;12.750;2023-11-21T15:54:06;3.20;99.90
4376;DHT22;2202;50.866;12.750;2023-11-21T15:56:34;3.20;99.90
4376;DHT22;2202;50.866;12.750;2023-11-21T15:59:02;3.30;99.90
4376;DHT22;2202;50.866;12.750;2023-11-21T16:01:30;3.30;99.90
4376;DHT22;2202;50.866;12.750;2023-11-21T16:03:58;3.30;99.90
4376;DHT22;2202;50.866;12.750;2023-11-21T16:06:27;3.30;99.90
4376;DHT22;2202;50.866;12.750;2023-11-21T16:08:54;3.30;99.90
4376;DHT22;2202;50.866;12.750;2023-11-21T16:11:24;3.30;99.70
4376;DHT22;2202;50.866;12.750;2023-11-21T16:13:51;3.30;99.80